createdAt,value
2018-07-14T00:02:06.141Z,6.40
2018-07-14T00:04:37.022Z,8.27
2018-07-14T00:07:07.283Z,5.33
2018-07-14T00:09:37.633Z,7.30
2018-07-14T00:12:08.214Z,7.07
2018-07-14T00:14:38.937Z,6.70
2018-07-14T00:17:09.423Z,4.00
2018-07-14T00:19:40.502Z,7.03
2018-07-14T00:22:10.793Z,5.27
2018-07-14T00:24:41.243Z,7.07
2018-07-14T00:27:12.008Z,5.00
2018-07-14T00:29:42.666Z,6.20
2018-07-14T00:32:13.283Z,7.13
2018-07-14T00:34:43.987Z,7.03
2018-07-14T00:37:15.059Z,5.33
2018-07-14T00:39:45.608Z,8.73
2018-07-14T00:42:16.289Z,5.20
2018-07-14T00:44:47.198Z,5.20
2018-07-14T00:47:17.757Z,9.73
2018-07-14T00:49:48.236Z,8.40
2018-07-14T00:52:18.730Z,4.47
2018-07-14T00:54:52.250Z,6.10
2018-07-14T00:57:22.855Z,7.27
2018-07-14T00:59:53.492Z,6.83
2018-07-14T01:02:23.917Z,5.17
2018-07-14T01:04:54.738Z,9.40
2018-07-14T01:07:25.464Z,4.53
2018-07-14T01:09:56.001Z,6.33
2018-07-14T01:12:27.128Z,10.23
2018-07-14T01:14:57.664Z,6.57
2018-07-14T01:17:27.998Z,4.43
2018-07-14T01:19:58.812Z,8.43
2018-07-14T01:22:33.797Z,5.10
2018-07-14T01:25:05.122Z,5.27
2018-07-14T01:27:35.934Z,7.40
2018-07-14T01:30:06.592Z,5.40
2018-07-14T01:32:37.286Z,6.60
2018-07-14T01:35:08.553Z,7.80
2018-07-14T01:37:38.841Z,5.63
2018-07-14T01:40:09.419Z,8.33
2018-07-14T01:42:40.169Z,9.87
2018-07-14T01:45:10.648Z,4.70
2018-07-14T01:47:41.194Z,5.50
2018-07-14T01:50:11.964Z,5.57
2018-07-14T01:52:42.592Z,9.90
2018-07-14T01:55:13.270Z,4.97
2018-07-14T01:57:43.858Z,5.17
2018-07-14T02:00:14.386Z,7.80
2018-07-14T02:02:45.006Z,6.77
2018-07-14T02:05:15.811Z,7.27
2018-07-14T02:07:46.359Z,7.10
2018-07-14T02:10:16.618Z,4.80
2018-07-14T02:12:47.124Z,8.47
2018-07-14T02:15:17.764Z,5.57
2018-07-14T02:17:48.382Z,5.37
2018-07-14T02:20:19.506Z,5.10
2018-07-14T02:22:50.497Z,6.43
2018-07-14T02:25:21.583Z,6.53
2018-07-14T02:27:52.990Z,9.30
2018-07-14T02:30:23.599Z,6.53
2018-07-14T02:32:54.123Z,5.40
2018-07-14T02:35:24.853Z,6.30
2018-07-14T02:37:56.116Z,5.33
2018-07-14T02:40:26.756Z,7.10
2018-07-14T02:42:57.571Z,7.77
2018-07-14T02:45:28.416Z,7.67
2018-07-14T02:47:58.892Z,5.10
2018-07-14T02:50:29.409Z,5.20
2018-07-14T02:52:59.897Z,5.17
2018-07-14T02:55:30.181Z,5.93
2018-07-14T02:58:01.051Z,8.40
2018-07-14T03:00:31.524Z,8.57
2018-07-14T03:03:02.491Z,5.97
2018-07-14T03:05:33.125Z,8.73
2018-07-14T03:08:03.980Z,5.97
2018-07-14T03:10:34.821Z,5.27
2018-07-14T03:13:05.852Z,5.90
2018-07-14T03:15:36.209Z,6.47
2018-07-14T03:18:07.133Z,25.83
2018-07-14T03:20:37.642Z,6.70
2018-07-14T03:23:08.186Z,7.00
2018-07-14T03:25:38.620Z,5.37
2018-07-14T03:28:09.211Z,6.77
2018-07-14T03:30:39.872Z,6.33
2018-07-14T03:33:10.445Z,5.17
2018-07-14T03:35:41.145Z,5.73
2018-07-14T03:38:11.357Z,5.77
2018-07-14T03:40:41.800Z,5.83
2018-07-14T03:43:12.383Z,6.47
2018-07-14T03:45:43.143Z,8.50
2018-07-14T03:48:13.278Z,7.30
2018-07-14T03:50:43.325Z,6.67
2018-07-14T03:53:13.744Z,9.30
2018-07-14T03:55:44.345Z,7.50
2018-07-14T03:58:17.815Z,4.73
2018-07-14T04:00:48.575Z,5.67
2018-07-14T04:03:19.758Z,5.93
2018-07-14T04:05:50.341Z,10.73
2018-07-14T04:08:20.570Z,7.90
2018-07-14T04:10:51.557Z,5.10
2018-07-14T04:13:22.347Z,11.33
2018-07-14T04:15:53.094Z,6.53
2018-07-14T04:18:24.049Z,9.03
2018-07-14T04:20:54.478Z,6.43
2018-07-14T04:23:25.744Z,5.20
2018-07-14T04:25:56.345Z,8.10
2018-07-14T04:28:26.855Z,11.83
2018-07-14T04:30:57.459Z,5.90
2018-07-14T04:33:28.250Z,7.80
2018-07-14T04:35:58.704Z,7.73
2018-07-14T04:38:29.441Z,5.97
2018-07-14T04:41:00.117Z,6.57
2018-07-14T04:43:30.532Z,7.40
2018-07-14T04:46:01.069Z,4.63
2018-07-14T04:48:32.450Z,10.33
2018-07-14T04:51:03.219Z,4.93
2018-07-14T04:53:34.285Z,5.63
2018-07-14T04:56:05.225Z,4.83
2018-07-14T04:58:35.894Z,11.03
2018-07-14T05:01:06.698Z,6.83
2018-07-14T05:03:37.140Z,6.00
2018-07-14T05:06:07.846Z,8.97
2018-07-14T05:08:38.501Z,5.57
2018-07-14T05:11:09.211Z,7.00
2018-07-14T05:13:40.821Z,6.70
2018-07-14T05:16:11.328Z,5.27
2018-07-14T05:18:41.908Z,4.40
2018-07-14T05:21:12.593Z,6.57
2018-07-14T05:23:43.068Z,4.67
2018-07-14T05:26:13.943Z,5.63
2018-07-14T05:28:44.531Z,6.30
2018-07-14T05:31:15.078Z,9.70
2018-07-14T05:33:45.628Z,5.43
2018-07-14T05:36:16.289Z,5.07
2018-07-14T05:38:46.998Z,3.87
2018-07-14T05:41:17.628Z,4.13
2018-07-14T05:43:48.467Z,4.33
2018-07-14T05:46:19.124Z,7.10
2018-07-14T05:48:49.744Z,4.10
2018-07-14T05:51:20.364Z,4.57
2018-07-14T05:53:50.860Z,3.03
2018-07-14T05:56:21.932Z,3.90
2018-07-14T05:58:52.437Z,2.97
2018-07-14T06:01:23.529Z,4.23
2018-07-14T06:03:54.237Z,3.97
2018-07-14T06:06:24.484Z,3.57
2018-07-14T06:08:54.976Z,5.27
2018-07-14T06:11:25.676Z,3.10
2018-07-14T06:13:56.527Z,3.47
2018-07-14T06:16:27.012Z,4.27
2018-07-14T06:18:57.522Z,3.80
2018-07-14T06:21:28.615Z,5.17
2018-07-14T06:23:59.976Z,3.40
2018-07-14T06:26:30.710Z,6.03
2018-07-14T06:29:01.372Z,4.57
2018-07-14T06:31:32.337Z,8.63
2018-07-14T06:34:02.978Z,4.23
2018-07-14T06:36:33.255Z,2.97
2018-07-14T06:39:04.851Z,2.80
2018-07-14T06:41:35.651Z,5.63
2018-07-14T06:44:06.251Z,2.70
2018-07-14T06:46:37.026Z,2.07
2018-07-14T06:49:07.592Z,4.23
2018-07-14T06:51:38.194Z,5.00
2018-07-14T06:54:08.943Z,9.50
2018-07-14T06:56:39.562Z,6.03
2018-07-14T06:59:10.217Z,2.60
2018-07-14T07:01:40.971Z,4.93
2018-07-14T07:04:11.699Z,1.97
2018-07-14T07:06:42.273Z,2.60
2018-07-14T07:09:13.135Z,5.93
2018-07-14T07:11:44.165Z,3.70
2018-07-14T07:14:15.033Z,2.27
2018-07-14T07:16:45.670Z,9.73
2018-07-14T07:19:16.231Z,1.70
2018-07-14T07:21:46.937Z,2.13
2018-07-14T07:24:18.574Z,3.90
2018-07-14T07:26:48.888Z,1.70
2018-07-14T07:29:19.625Z,2.67
2018-07-14T07:31:50.968Z,1.63
2018-07-14T07:34:22.443Z,2.47
2018-07-14T07:36:53.167Z,2.30
2018-07-14T07:39:23.890Z,1.60
2018-07-14T07:41:54.625Z,1.53
2018-07-14T07:44:25.111Z,1.90
2018-07-14T07:46:55.840Z,1.53
2018-07-14T07:49:27.445Z,2.03
2018-07-14T07:51:58.099Z,3.97
2018-07-14T07:54:28.823Z,2.23
2018-07-14T07:56:59.398Z,2.03
2018-07-14T07:59:30.099Z,1.83
2018-07-14T08:02:00.555Z,2.63
2018-07-14T08:04:32.554Z,2.40
2018-07-14T08:07:03.037Z,1.57
2018-07-14T08:09:33.469Z,1.50
2018-07-14T08:12:04.066Z,1.30
2018-07-14T08:14:34.553Z,1.80
2018-07-14T08:17:05.548Z,2.80
2018-07-14T08:19:36.167Z,2.60
2018-07-14T08:22:07.427Z,2.60
2018-07-14T08:24:38.134Z,1.87
2018-07-14T08:27:08.738Z,2.40
2018-07-14T08:29:39.226Z,1.70
2018-07-14T08:32:09.716Z,3.53
2018-07-14T08:34:40.167Z,3.00
2018-07-14T08:37:10.882Z,3.77
2018-07-14T08:39:42.561Z,2.00
2018-07-14T08:42:13.257Z,1.50
2018-07-14T08:44:43.829Z,2.07
2018-07-14T08:47:14.552Z,1.60
2018-07-14T08:49:45.951Z,1.70
2018-07-14T08:52:17.080Z,4.23
2018-07-14T08:54:47.718Z,1.83
2018-07-14T08:57:18.593Z,1.80
2018-07-14T08:59:49.242Z,2.03
2018-07-14T09:02:20.664Z,4.50
2018-07-14T09:04:51.420Z,2.93
2018-07-14T09:07:22.107Z,1.90
2018-07-14T09:09:52.781Z,1.73
2018-07-14T09:12:24.253Z,5.90
2018-07-14T09:14:54.761Z,1.40
2018-07-14T09:17:25.423Z,2.20
2018-07-14T09:19:56.059Z,2.20
2018-07-14T09:22:26.817Z,3.63
2018-07-14T09:24:57.197Z,1.67
2018-07-14T09:27:27.837Z,2.20
2018-07-14T09:29:58.454Z,2.67
2018-07-14T09:32:29.048Z,2.10
2018-07-14T09:34:59.616Z,4.53
2018-07-14T09:37:30.083Z,2.93
2018-07-14T09:40:00.749Z,2.02
2018-07-14T09:42:31.533Z,2.58
2018-07-14T09:45:05.153Z,1.60
2018-07-14T09:47:35.982Z,2.25
2018-07-14T09:50:06.565Z,1.83
2018-07-14T09:52:37.101Z,8.00
2018-07-14T09:55:08.362Z,0.90
2018-07-14T09:57:39.005Z,1.30
2018-07-14T10:00:14.736Z,1.60
2018-07-14T10:02:45.288Z,1.53
2018-07-14T10:05:15.885Z,1.30
2018-07-14T10:07:46.435Z,2.13
2018-07-14T10:10:17.192Z,5.50
2018-07-14T10:12:47.845Z,1.73
2018-07-14T10:15:18.482Z,1.70
2018-07-14T10:17:49.268Z,1.57
2018-07-14T10:20:20.368Z,2.73
2018-07-14T10:22:51.195Z,1.70
2018-07-14T10:25:22.072Z,2.27
2018-07-14T10:27:52.405Z,2.20
2018-07-14T10:30:22.920Z,2.63
2018-07-14T10:32:53.407Z,2.40
2018-07-14T10:35:23.993Z,3.03
2018-07-14T10:37:54.685Z,2.90
2018-07-14T10:40:25.364Z,3.07
2018-07-14T10:42:56.086Z,4.60
2018-07-14T10:45:26.954Z,4.03
2018-07-14T10:47:57.536Z,2.13
2018-07-14T10:50:28.223Z,2.83
2018-07-14T10:52:58.952Z,2.37
2018-07-14T10:55:29.531Z,2.00
2018-07-14T10:58:00.168Z,3.33
2018-07-14T11:00:30.783Z,2.90
2018-07-14T11:03:01.064Z,5.77
2018-07-14T11:05:32.032Z,4.83
2018-07-14T11:08:02.673Z,2.30
2018-07-14T11:10:33.332Z,2.73
2018-07-14T11:13:03.592Z,2.30
2018-07-14T11:15:34.116Z,3.03
2018-07-14T11:18:05.007Z,2.10
2018-07-14T11:20:35.548Z,2.10
2018-07-14T11:23:06.468Z,6.37
2018-07-14T11:25:37.120Z,2.13
2018-07-14T11:28:07.853Z,2.33
2018-07-14T11:30:38.474Z,4.43
2018-07-14T11:33:09.026Z,2.40
2018-07-14T11:35:39.716Z,5.43
2018-07-14T11:38:10.613Z,2.03
2018-07-14T11:40:41.230Z,2.27
2018-07-14T11:43:11.986Z,3.00
2018-07-14T11:45:42.652Z,3.23
2018-07-14T11:48:13.201Z,2.63
2018-07-14T11:50:43.812Z,5.07
2018-07-14T11:53:14.647Z,2.30
2018-07-14T11:55:45.354Z,3.80
2018-07-14T11:58:16.582Z,3.77
2018-07-14T12:00:47.100Z,2.70
2018-07-14T12:03:17.883Z,3.03
2018-07-14T12:05:48.543Z,2.30
2018-07-14T12:08:19.080Z,5.27
2018-07-14T12:10:49.584Z,2.87
2018-07-14T12:13:20.209Z,2.90
2018-07-14T12:15:50.864Z,2.70
2018-07-14T12:18:21.551Z,2.50
2018-07-14T12:20:52.249Z,3.07
2018-07-14T12:23:22.845Z,2.63
2018-07-14T12:25:53.575Z,3.57
2018-07-14T12:28:24.263Z,2.50
2018-07-14T12:30:54.999Z,2.97
2018-07-14T12:33:25.766Z,2.70
2018-07-14T12:35:56.400Z,3.80
2018-07-14T12:38:26.984Z,6.27
2018-07-14T12:40:58.088Z,2.60
2018-07-14T12:43:28.734Z,2.70
2018-07-14T12:45:59.227Z,2.37
2018-07-14T12:48:29.963Z,2.87
2018-07-14T12:51:00.790Z,2.50
2018-07-14T12:53:31.344Z,3.27
2018-07-14T12:56:02.049Z,2.37
2018-07-14T12:58:32.723Z,3.83
2018-07-14T13:01:03.286Z,4.90
2018-07-14T13:03:34.009Z,3.53
2018-07-14T13:06:04.366Z,3.07
2018-07-14T13:08:35.029Z,3.27
2018-07-14T13:11:05.971Z,3.30
2018-07-14T13:13:36.654Z,2.90
2018-07-14T13:16:07.906Z,3.93
2018-07-14T13:18:39.350Z,2.43
2018-07-14T13:21:10.100Z,4.37
2018-07-14T13:23:40.715Z,2.97
2018-07-14T13:26:11.317Z,2.80
2018-07-14T13:28:42.312Z,4.67
2018-07-14T13:31:13.026Z,3.30
2018-07-14T13:33:43.601Z,2.70
2018-07-14T13:36:14.358Z,2.83
2018-07-14T13:38:51.557Z,3.47
2018-07-14T13:41:15.920Z,2.70
2018-07-14T13:43:46.554Z,3.70
2018-07-14T13:46:17.398Z,5.20
2018-07-14T13:48:48.117Z,2.67
2018-07-14T13:51:18.700Z,2.80
2018-07-14T13:53:49.403Z,3.10
2018-07-14T13:56:20.625Z,2.47
2018-07-14T13:58:51.173Z,4.33
2018-07-14T14:01:22.089Z,2.50
2018-07-14T14:03:53.070Z,3.00
2018-07-14T14:06:23.843Z,4.10
2018-07-14T14:08:54.451Z,4.37
2018-07-14T14:11:25.177Z,2.67
2018-07-14T14:13:55.705Z,6.63
2018-07-14T14:16:26.355Z,5.50
2018-07-14T14:18:57.060Z,2.30
2018-07-14T14:21:27.761Z,2.90
2018-07-14T14:23:58.402Z,3.00
2018-07-14T14:26:29.261Z,4.00
2018-07-14T14:28:59.952Z,4.37
2018-07-14T14:31:30.428Z,4.77
2018-07-14T14:34:01.160Z,2.63
2018-07-14T14:36:32.013Z,7.90
2018-07-14T14:39:02.637Z,3.50
2018-07-14T14:41:33.468Z,3.80
2018-07-14T14:44:04.257Z,4.73
2018-07-14T14:46:34.826Z,6.13
2018-07-14T14:49:05.147Z,3.20
2018-07-14T14:51:35.690Z,8.90
2018-07-14T14:54:06.373Z,3.67
2018-07-14T14:56:37.289Z,4.27
2018-07-14T14:59:07.999Z,4.47
2018-07-14T15:01:38.522Z,2.90
2018-07-14T15:04:09.292Z,2.80
2018-07-14T15:06:39.937Z,3.60
2018-07-14T15:09:10.539Z,2.73
2018-07-14T15:11:41.140Z,2.60
2018-07-14T15:14:11.929Z,3.60
2018-07-14T15:16:42.502Z,3.40
2018-07-14T15:19:13.010Z,3.57
2018-07-14T15:21:43.731Z,3.00
2018-07-14T15:24:14.272Z,10.17
2018-07-14T15:26:44.957Z,2.20
2018-07-14T15:29:15.798Z,3.30
2018-07-14T15:31:46.906Z,2.60
2018-07-14T15:34:17.953Z,6.30
2018-07-14T15:36:48.838Z,2.90
2018-07-14T15:39:19.424Z,4.63
2018-07-14T15:41:49.910Z,2.83
2018-07-14T15:44:20.560Z,3.37
2018-07-14T15:46:51.101Z,2.60
2018-07-14T15:49:21.768Z,3.83
2018-07-14T15:51:53.209Z,3.70
2018-07-14T15:54:23.793Z,3.07
2018-07-14T15:56:54.450Z,6.93
2018-07-14T15:59:25.108Z,3.53
2018-07-14T16:01:55.724Z,3.47
2018-07-14T16:04:26.591Z,2.87
2018-07-14T16:06:57.274Z,3.13
2018-07-14T16:09:28.052Z,4.63
2018-07-14T16:11:58.540Z,4.10
2018-07-14T16:14:29.160Z,4.17
2018-07-14T16:16:59.753Z,4.00
2018-07-14T16:19:30.301Z,3.90
2018-07-14T16:22:00.900Z,4.20
2018-07-14T16:24:31.524Z,3.60
2018-07-14T16:27:02.164Z,3.90
2018-07-14T16:29:32.714Z,4.60
2018-07-14T16:32:03.234Z,8.80
2018-07-14T16:34:33.794Z,7.67
2018-07-14T16:37:04.547Z,4.17
2018-07-14T16:39:35.168Z,2.83
2018-07-14T16:42:06.141Z,3.73
2018-07-14T16:44:36.816Z,3.93
2018-07-14T16:47:07.381Z,7.70
2018-07-14T16:49:38.087Z,3.60
2018-07-14T16:52:08.953Z,4.00
2018-07-14T16:54:39.674Z,6.63
2018-07-14T16:57:10.406Z,5.03
2018-07-14T16:59:40.934Z,4.07
2018-07-14T17:02:11.621Z,3.10
2018-07-14T17:04:42.202Z,7.27
2018-07-14T17:07:13.021Z,5.30
2018-07-14T17:09:43.645Z,5.27
2018-07-14T17:12:14.262Z,4.17
2018-07-14T17:14:44.919Z,22.53
2018-07-14T17:17:15.777Z,5.80
2018-07-14T17:19:46.547Z,14.17
2018-07-14T17:22:17.045Z,28.00
2018-07-14T17:24:47.898Z,35.10
2018-07-14T17:27:18.410Z,30.47
2018-07-14T17:29:48.812Z,25.80
2018-07-14T17:32:19.527Z,6.13
2018-07-14T17:34:50.055Z,4.80
2018-07-14T17:37:20.653Z,4.67
2018-07-14T17:39:51.368Z,14.43
2018-07-14T17:42:21.738Z,5.97
2018-07-14T17:44:52.354Z,9.80
2018-07-14T17:47:22.601Z,5.03
2018-07-14T17:49:53.220Z,4.50
2018-07-14T17:52:24.066Z,3.73
2018-07-14T17:54:54.710Z,9.50
2018-07-14T17:57:25.218Z,6.33
2018-07-14T17:59:55.889Z,14.00
2018-07-14T18:02:27.193Z,5.43
2018-07-14T18:04:57.712Z,4.30
2018-07-14T18:07:28.418Z,9.27
2018-07-14T18:09:58.940Z,4.03
2018-07-14T18:12:29.692Z,7.33
2018-07-14T18:15:00.055Z,5.20
2018-07-14T18:17:31.165Z,2.97
2018-07-14T18:20:01.736Z,3.50
2018-07-14T18:22:32.550Z,5.60
2018-07-14T18:25:03.267Z,2.40
2018-07-14T18:27:33.698Z,2.40
2018-07-14T18:30:04.120Z,1.97
2018-07-14T18:32:34.549Z,2.10
2018-07-14T18:35:05.320Z,1.70
2018-07-14T18:37:36.129Z,1.67
2018-07-14T18:40:07.168Z,1.87
2018-07-14T18:42:37.724Z,1.57
2018-07-14T18:45:08.306Z,1.53
2018-07-14T18:47:38.833Z,1.63
2018-07-14T18:50:09.613Z,1.60
2018-07-14T18:52:40.168Z,1.60
2018-07-14T18:55:10.685Z,1.77
2018-07-14T18:57:41.277Z,2.07
2018-07-14T19:00:11.703Z,2.07
2018-07-14T19:02:42.187Z,2.23
2018-07-14T19:05:13.049Z,1.63
2018-07-14T19:07:43.920Z,2.07
2018-07-14T19:10:14.454Z,1.90
2018-07-14T19:12:45.516Z,2.47
2018-07-14T19:15:16.295Z,2.00
2018-07-14T19:17:46.964Z,2.77
2018-07-14T19:20:17.655Z,2.10
2018-07-14T19:22:49.193Z,4.00
2018-07-14T19:25:19.840Z,1.60
2018-07-14T19:27:50.388Z,5.23
2018-07-14T19:30:20.699Z,3.70
2018-07-14T19:32:51.175Z,3.87
2018-07-14T19:35:28.266Z,2.30
2018-07-14T19:37:58.913Z,2.63
2018-07-14T19:40:29.620Z,5.00
2018-07-14T19:43:00.222Z,7.73
2018-07-14T19:45:30.943Z,9.23
2018-07-14T19:48:01.419Z,5.30
2018-07-14T19:50:32.001Z,11.40
2018-07-14T19:53:02.670Z,10.50
2018-07-14T19:55:35.666Z,4.17
2018-07-14T19:58:04.237Z,3.70
2018-07-14T20:00:34.957Z,15.27
2018-07-14T20:03:06.003Z,15.10
2018-07-14T20:05:36.962Z,15.73
2018-07-14T20:08:07.669Z,5.77
2018-07-14T20:10:38.273Z,4.10
2018-07-14T20:13:08.981Z,6.53
2018-07-14T20:15:39.707Z,8.87
2018-07-14T20:18:10.282Z,6.77
2018-07-14T20:20:40.617Z,4.37
2018-07-14T20:23:11.087Z,5.30
2018-07-14T20:25:41.567Z,5.03
2018-07-14T20:28:12.309Z,4.20
2018-07-14T20:30:44.631Z,6.30
2018-07-14T20:33:15.312Z,10.40
2018-07-14T20:35:46.097Z,9.97
2018-07-14T20:38:16.602Z,5.87
2018-07-14T20:40:47.391Z,5.90
2018-07-14T20:43:18.170Z,5.40
2018-07-14T20:45:48.799Z,5.23
2018-07-14T20:48:19.919Z,5.93
2018-07-14T20:50:50.323Z,6.80
2018-07-14T20:53:20.905Z,5.40
2018-07-14T20:55:51.596Z,5.73
2018-07-14T20:58:22.508Z,9.90
2018-07-14T21:00:53.250Z,6.10
2018-07-14T21:03:23.876Z,5.90
2018-07-14T21:05:55.062Z,5.63
2018-07-14T21:08:25.356Z,4.97
2018-07-14T21:10:56.024Z,14.50
2018-07-14T21:13:26.659Z,4.07
2018-07-14T21:15:58.592Z,7.17
2018-07-14T21:18:29.369Z,4.57
2018-07-14T21:21:00.112Z,10.40
2018-07-14T21:23:31.052Z,5.40
2018-07-14T21:26:01.954Z,4.50
2018-07-14T21:28:32.596Z,5.73
2018-07-14T21:31:03.070Z,5.87
2018-07-14T21:33:33.749Z,6.83
2018-07-14T21:36:04.893Z,8.17
2018-07-14T21:38:35.571Z,9.07
2018-07-14T21:41:06.384Z,6.13
2018-07-14T21:43:37.207Z,4.70
2018-07-14T21:46:07.576Z,7.83
2018-07-14T21:48:38.862Z,4.90
2018-07-14T21:51:09.630Z,5.87
2018-07-14T21:53:40.291Z,6.20
2018-07-14T21:56:10.856Z,13.63
2018-07-14T21:58:41.538Z,12.50
2018-07-14T22:01:17.398Z,13.80
2018-07-14T22:03:48.105Z,9.50
2018-07-14T22:06:22.598Z,10.90
2018-07-14T22:08:53.103Z,6.63
2018-07-14T22:11:23.752Z,6.70
2018-07-14T22:13:54.808Z,7.60
2018-07-14T22:16:25.606Z,10.37
2018-07-14T22:18:56.187Z,12.10
2018-07-14T22:21:26.563Z,10.13
2018-07-14T22:23:56.961Z,8.30
2018-07-14T22:26:27.560Z,7.73
2018-07-14T22:28:58.339Z,10.77
2018-07-14T22:31:29.712Z,6.10
2018-07-14T22:34:06.729Z,8.70
2018-07-14T22:36:37.822Z,6.23
2018-07-14T22:39:08.981Z,11.93
2018-07-14T22:41:40.181Z,11.10
2018-07-14T22:44:10.781Z,8.60
2018-07-14T22:46:42.048Z,13.00
2018-07-14T22:49:12.648Z,6.00
2018-07-14T22:51:43.501Z,7.53
2018-07-14T22:54:17.137Z,6.13
2018-07-14T22:56:47.964Z,14.93
2018-07-14T22:59:18.457Z,7.10
2018-07-14T23:01:49.030Z,8.53
2018-07-14T23:04:19.520Z,8.97
2018-07-14T23:06:51.097Z,9.93
2018-07-14T23:09:21.327Z,6.93
2018-07-14T23:11:51.972Z,7.20
2018-07-14T23:14:22.737Z,6.50
2018-07-14T23:16:54.325Z,7.67
2018-07-14T23:19:25.073Z,6.80
2018-07-14T23:21:55.814Z,10.90
2018-07-14T23:24:26.408Z,5.60
2018-07-14T23:26:57.056Z,7.67
2018-07-14T23:29:27.718Z,9.23
2018-07-14T23:31:58.608Z,8.43
2018-07-14T23:34:29.141Z,6.63
2018-07-14T23:36:59.768Z,9.80
2018-07-14T23:39:30.443Z,12.57
2018-07-14T23:42:01.283Z,10.53
2018-07-14T23:44:32.047Z,6.30
2018-07-14T23:47:02.640Z,7.30
2018-07-14T23:49:33.376Z,7.07
2018-07-14T23:52:03.957Z,6.47
2018-07-14T23:54:34.499Z,8.07
2018-07-14T23:57:06.878Z,14.03
2018-07-14T23:59:37.529Z,7.13
